Time;durP1;ratioP1;P1;durP2;ratioP2;P2;SDS_P1;SDS_P2;PMS_P1;PMS_P2;Temp;Humidity;BMP_temperature;BMP_pressure;BME280_temperature;BME280_humidity;BME280_pressure;Samples;Min_cycle;Max_cycle;Signal;HPM_P1;HPM_P2
2022/08/08 00:01:48;;;;;;;;;2.20;2.20;;;;;22.70;36.27;101583.06;4850800;29;45338;-54
2022/08/08 00:04:16;;;;;;;;;2.80;1.80;;;;;22.90;36.27;101609.44;4865308;29;47045;-54
2022/08/08 00:06:51;;;;;;;;;4.40;1.60;;;;;22.81;35.86;101592.34;4882102;29;45287;-57
2022/08/08 00:09:23;;;;;;;;;4.20;2.60;;;;;22.87;36.06;101595.97;4849486;29;45382;-56
2022/08/08 00:11:55;;;;;;;;;1.20;1.20;;;;;22.78;36.44;101581.66;4865389;29;45387;-58
2022/08/08 00:14:48;;;;;;;;;3.20;3.20;;;;;22.94;36.15;101604.13;4881818;29;45606;-59
2022/08/08 00:17:41;;;;;;;;;3.00;3.00;;;;;22.93;36.60;101602.44;4849809;29;45419;-54
2022/08/08 00:20:08;;;;;;;;;4.00;4.00;;;;;22.85;36.90;101599.03;4846333;29;45255;-58
2022/08/08 00:22:47;;;;;;;;;4.00;3.20;;;;;22.63;37.00;101587.22;4831112;29;45523;-56
2022/08/08 00:25:35;;;;;;;;;2.00;2.00;;;;;22.68;36.83;101593.66;4831388;29;46213;-56
2022/08/08 00:28:01;;;;;;;;;3.80;3.80;;;;;22.62;37.32;101591.97;4861595;29;45391;-57
2022/08/08 00:30:31;;;;;;;;;4.50;2.00;;;;;22.53;37.57;101591.66;4846436;29;45293;-57
2022/08/08 00:33:01;;;;;;;;;3.40;3.40;;;;;22.56;37.32;101588.31;4846389;29;45452;-57
2022/08/08 00:35:47;;;;;;;;;5.00;3.80;;;;;22.43;37.94;101575.66;4861518;29;46593;-58
2022/08/08 00:38:24;;;;;;;;;4.20;2.20;;;;;22.39;38.21;101593.22;4846304;29;45483;-56
2022/08/08 00:41:24;;;;;;;;;2.00;2.00;;;;;22.28;37.82;101561.56;4862833;29;45414;-57
2022/08/08 00:44:22;;;;;;;;;6.20;3.80;;;;;22.31;38.12;101572.22;4862960;29;45213;-56
2022/08/08 00:46:50;;;;;;;;;3.20;2.00;;;;;22.26;37.91;101564.66;4821232;29;45538;-57
2022/08/08 00:49:35;;;;;;;;;2.00;2.00;;;;;22.32;38.03;101552.34;4862270;29;45394;-57
2022/08/08 00:52:06;;;;;;;;;5.40;4.00;;;;;22.40;38.44;101583.75;4862679;29;45460;-57
2022/08/08 00:54:40;;;;;;;;;3.00;3.00;;;;;22.38;38.36;101581.22;4846017;29;45269;-57
2022/08/08 00:57:41;;;;;;;;;4.00;4.00;;;;;22.31;38.35;101575.03;4845380;29;49037;-58
2022/08/08 01:00:13;;;;;;;;;4.00;4.00;;;;;22.28;38.54;101584.78;4848315;29;45595;-58
2022/08/08 01:03:09;;;;;;;;;3.00;3.00;;;;;22.26;38.59;101580.59;4845797;29;45570;-55
2022/08/08 01:06:06;;;;;;;;;5.60;4.60;;;;;22.23;38.70;101569.94;4862353;29;45496;-58
2022/08/08 01:09:02;;;;;;;;;3.80;3.80;;;;;22.34;38.39;101577.25;4862122;29;46451;-57
2022/08/08 01:11:38;;;;;;;;;3.00;3.00;;;;;22.16;38.54;101559.84;4843056;29;45417;-59
2022/08/08 01:14:21;;;;;;;;;3.80;3.80;;;;;21.72;38.91;101490.28;4827033;29;45353;-58
2022/08/08 01:16:47;;;;;;;;;4.60;4.60;;;;;22.21;38.74;101567.41;4843331;29;45342;-56
2022/08/08 01:19:15;;;;;;;;;5.00;3.50;;;;;22.23;39.01;101567.97;4846226;29;46709;-58
2022/08/08 01:22:17;;;;;;;;;4.80;4.60;;;;;22.17;39.21;101563.47;4861728;29;45323;-55
2022/08/08 01:24:49;;;;;;;;;3.40;3.20;;;;;22.12;39.06;101563.44;4861778;29;45420;-57
2022/08/08 01:27:33;;;;;;;;;5.00;5.00;;;;;22.19;39.08;101567.69;4845631;29;45436;-57
2022/08/08 01:30:07;;;;;;;;;4.00;4.00;;;;;22.15;39.01;101563.75;4860940;29;46842;-56
2022/08/08 01:33:16;;;;;;;;;4.20;4.20;;;;;22.18;38.76;101566.00;4861720;29;45441;-54
2022/08/08 01:36:03;;;;;;;;;3.00;3.00;;;;;22.15;39.19;101565.72;4844997;29;45428;-56
2022/08/08 01:38:53;;;;;;;;;2.80;2.80;;;;;22.08;39.33;101568.72;4861437;29;45349;-56
2022/08/08 01:41:30;;;;;;;;;5.00;4.00;;;;;22.06;39.37;101566.22;4861542;29;46393;-57
2022/08/08 01:44:08;;;;;;;;;5.60;5.60;;;;;22.05;39.34;101567.31;4844887;29;45453;-57
2022/08/08 01:47:05;;;;;;;;;3.60;3.00;;;;;21.93;39.36;101552.72;4845147;29;45732;-57
2022/08/08 01:49:34;;;;;;;;;3.20;3.20;;;;;22.05;39.67;101564.53;4861921;29;45245;-54
2022/08/08 01:52:27;;;;;;;;;3.00;3.00;;;;;22.04;39.48;101565.63;4861333;29;46711;-54
2022/08/08 01:55:10;;;;;;;;;3.80;3.80;;;;;22.01;39.47;101574.56;4844371;29;45451;-55
2022/08/08 01:57:57;;;;;;;;;3.40;3.40;;;;;21.84;39.37;101529.19;4844991;29;45396;-53
2022/08/08 02:00:26;;;;;;;;;3.40;3.40;;;;;21.95;39.69;101564.47;4830428;29;45384;-55
2022/08/08 02:03:12;;;;;;;;;3.60;3.60;;;;;21.39;40.04;101473.53;4803193;29;46869;-57
2022/08/08 02:06:31;;;;;;;;;4.00;4.00;;;;;21.96;39.60;101571.75;4844853;29;45415;-56
2022/08/08 02:08:59;;;;;;;;;4.00;2.80;;;;;21.91;39.71;101566.97;4821596;29;45484;-53
2022/08/08 02:11:36;;;;;;;;;4.00;4.00;;;;;21.91;39.83;101577.28;4825385;29;45586;-53
2022/08/08 02:14:12;;;;;;;;;5.00;3.40;;;;;21.75;40.22;101568.81;4850161;29;45637;-56
2022/08/08 02:16:48;;;;;;;;;3.00;3.00;;;;;21.79;40.52;101578.31;4864393;29;45420;-59
2022/08/08 02:19:22;;;;;;;;;3.80;3.80;;;;;21.54;40.61;101551.00;4863454;29;45212;-56
2022/08/08 02:25:06;;;;;;;;;3.60;3.20;;;;;21.64;40.58;101570.66;4867106;29;45812;-55
2022/08/08 02:27:37;;;;;;;;;4.60;3.80;;;;;21.58;40.69;101554.09;4880371;29;45303;-54
2022/08/08 02:30:17;;;;;;;;;3.60;3.60;;;;;21.56;40.96;101559.94;4848177;29;45390;-55
2022/08/08 02:33:04;;;;;;;;;5.00;5.00;;;;;21.54;40.90;101564.97;4849162;29;45374;-53
2022/08/08 02:35:51;;;;;;;;;1.00;1.00;;;;;21.43;41.20;101566.84;4879690;29;46654;-56
2022/08/08 02:38:35;;;;;;;;;6.80;5.80;;;;;21.32;41.38;101560.31;4864498;29;45375;-56
2022/08/08 02:41:25;;;;;;;;;4.40;4.00;;;;;21.32;41.44;101573.41;4880068;29;45446;-57
2022/08/08 02:44:27;;;;;;;;;6.40;4.00;;;;;21.32;41.46;101568.69;4883719;29;45268;-56
2022/08/08 02:47:31;;;;;;;;;6.20;5.40;;;;;21.19;41.95;101566.34;4883193;29;46420;-53
2022/08/08 02:50:02;;;;;;;;;4.80;3.40;;;;;21.13;42.18;101568.22;4840958;29;45567;-56
2022/08/08 02:52:34;;;;;;;;;5.60;5.60;;;;;21.05;42.00;101552.81;4866306;29;45357;-58
2022/08/08 02:55:16;;;;;;;;;5.40;5.40;;;;;21.15;42.20;101573.53;4866420;29;45280;-54
2022/08/08 02:57:50;;;;;;;;;3.40;3.40;;;;;21.02;42.63;101572.03;4883253;29;46802;-59
2022/08/08 03:00:40;;;;;;;;;4.00;4.00;;;;;21.12;42.31;101574.91;4882861;29;45503;-54
2022/08/08 03:03:30;;;;;;;;;5.60;5.60;;;;;21.18;41.74;101579.44;4882851;29;45325;-53
2022/08/08 03:06:17;;;;;;;;;4.60;4.00;;;;;21.20;41.94;101571.66;4883199;29;45437;-56
2022/08/08 03:08:45;;;;;;;;;5.00;5.00;;;;;21.23;41.98;101575.84;4883030;29;45353;-55
2022/08/08 03:11:32;;;;;;;;;5.40;5.40;;;;;21.12;42.07;101563.75;4882289;29;45221;-53
2022/08/08 03:14:03;;;;;;;;;5.40;5.40;;;;;20.96;42.63;101566.38;4881491;29;45380;-57
2022/08/08 03:16:41;;;;;;;;;4.20;3.20;;;;;21.04;42.39;101561.44;4882889;29;45344;-55
2022/08/08 03:19:22;;;;;;;;;5.00;5.00;;;;;21.08;42.41;101577.38;4866509;29;45614;-53
2022/08/08 03:21:47;;;;;;;;;3.40;3.40;;;;;21.16;42.24;101578.00;4865284;29;45505;-53
2022/08/08 03:24:17;;;;;;;;;7.00;7.00;;;;;20.97;42.44;101542.13;4882483;29;45370;-57
2022/08/08 03:26:43;;;;;;;;;5.80;5.60;;;;;21.05;42.47;101580.72;4865980;29;45505;-55
2022/08/08 03:29:11;;;;;;;;;4.00;4.00;;;;;20.91;42.66;101554.34;4849920;29;45944;-56
2022/08/08 03:34:20;;;;;;;;;6.80;6.80;;;;;20.91;42.28;101552.38;4882591;29;45458;-56
2022/08/08 03:36:46;;;;;;;;;4.75;4.75;;;;;21.08;42.24;101580.16;4865336;29;45500;-54
2022/08/08 03:39:12;;;;;;;;;6.00;6.00;;;;;21.10;42.39;101574.34;4865337;29;46719;-55
2022/08/08 03:41:37;;;;;;;;;5.60;5.60;;;;;21.06;42.24;101581.53;4865354;29;45491;-54
2022/08/08 03:44:03;;;;;;;;;4.50;4.50;;;;;20.84;42.94;101585.22;4882413;29;45338;-55
2022/08/08 03:46:29;;;;;;;;;6.80;5.60;;;;;20.83;42.83;101580.72;4849635;29;45410;-55
2022/08/08 03:48:58;;;;;;;;;5.25;5.25;;;;;20.82;43.17;101585.44;4865224;29;46433;-53
2022/08/08 03:51:24;;;;;;;;;6.00;6.00;;;;;20.68;43.36;101587.78;4881580;29;45457;-57
2022/08/08 03:53:53;;;;;;;;;6.50;5.50;;;;;20.70;43.50;101591.16;4881621;29;45437;-55
2022/08/08 03:56:19;;;;;;;;;5.40;5.40;;;;;20.71;43.62;101589.22;4882238;29;45332;-53
2022/08/08 03:58:51;;;;;;;;;4.00;4.00;;;;;20.63;43.40;101582.16;4864869;29;47042;-58
2022/08/08 04:01:17;;;;;;;;;5.00;5.00;;;;;20.69;43.69;101583.03;4881688;29;45508;-55
2022/08/08 04:03:47;;;;;;;;;8.50;6.00;;;;;20.60;43.34;101568.75;4881872;29;45400;-55
2022/08/08 04:06:13;;;;;;;;;4.60;4.60;;;;;20.80;43.20;101595.16;4880688;29;45340;-53
2022/08/08 04:08:38;;;;;;;;;7.00;6.00;;;;;20.65;43.14;101574.34;4881471;29;45765;-58
2022/08/08 04:11:04;;;;;;;;;4.50;4.50;;;;;20.84;43.21;101596.38;4881528;29;45442;-59
2022/08/08 04:13:31;;;;;;;;;6.20;6.20;;;;;20.76;43.27;101600.41;4865103;29;45406;-56
2022/08/08 04:15:57;;;;;;;;;7.50;6.50;;;;;20.62;43.33;101568.44;4882064;29;45717;-55
2022/08/08 04:18:22;;;;;;;;;7.00;5.75;;;;;20.72;43.40;101599.28;4864920;29;45532;-53
2022/08/08 04:20:47;;;;;;;;;6.75;5.50;;;;;20.76;43.30;101596.81;4880977;29;45501;-53
2022/08/08 04:23:13;;;;;;;;;5.50;5.50;;;;;20.75;43.10;101601.53;4882071;29;45308;-53
2022/08/08 04:25:39;;;;;;;;;5.00;5.00;;;;;20.63;43.73;101596.09;4882011;29;45289;-54
2022/08/08 04:28:04;;;;;;;;;5.50;5.50;;;;;20.63;43.80;101600.81;4849229;29;45385;-57
2022/08/08 04:30:30;;;;;;;;;9.00;7.00;;;;;20.70;43.38;101609.81;4864838;29;45443;-55
2022/08/08 04:32:55;;;;;;;;;3.75;3.75;;;;;20.51;43.68;101575.84;4881581;29;45257;-56
2022/08/08 04:35:21;;;;;;;;;8.50;5.75;;;;;20.62;44.01;101615.88;4882011;29;45380;-55
2022/08/08 04:37:46;;;;;;;;;3.25;3.25;;;;;20.50;43.75;101588.09;4864213;29;45830;-57
2022/08/08 04:40:12;;;;;;;;;5.75;5.75;;;;;20.37;44.27;101587.38;4881554;29;45283;-53
2022/08/08 04:42:37;;;;;;;;;7.25;5.00;;;;;20.41;43.90;101593.28;4864590;29;45225;-57
2022/08/08 04:45:04;;;;;;;;;8.75;8.75;;;;;20.33;44.26;101583.41;4881635;29;45473;-54
2022/08/08 04:47:29;;;;;;;;;7.60;7.00;;;;;20.59;43.83;101608.84;4881249;29;46086;-55
2022/08/08 04:49:55;;;;;;;;;6.50;6.00;;;;;20.61;44.10;101616.97;4864216;29;45446;-58
2022/08/08 04:52:20;;;;;;;;;5.75;5.75;;;;;20.61;43.67;101614.19;4881493;29;45410;-54
2022/08/08 04:54:46;;;;;;;;;6.00;5.75;;;;;20.57;43.99;101611.94;4864334;29;45416;-53
2022/08/08 04:57:11;;;;;;;;;7.75;6.25;;;;;20.62;43.93;101613.06;4863896;29;48493;-54
2022/08/08 04:59:38;;;;;;;;;7.25;6.00;;;;;20.62;43.92;101616.72;4881224;29;45302;-53
2022/08/08 05:02:03;;;;;;;;;8.00;7.00;;;;;20.58;44.01;101619.19;4880763;29;45421;-54
2022/08/08 05:04:29;;;;;;;;;9.25;7.75;;;;;20.52;44.13;101617.44;4863640;29;45381;-55
2022/08/08 05:06:54;;;;;;;;;7.25;5.50;;;;;20.53;44.31;101621.03;4880822;29;45435;-54
2022/08/08 05:09:20;;;;;;;;;6.75;6.75;;;;;20.40;44.26;101598.03;4880974;29;45244;-54
2022/08/08 05:11:45;;;;;;;;;9.50;8.00;;;;;20.48;43.98;101621.00;4880875;29;45324;-54
2022/08/08 05:14:11;;;;;;;;;6.00;6.00;;;;;20.39;44.08;101612.22;4864557;29;45381;-55
2022/08/08 05:16:37;;;;;;;;;7.25;7.25;;;;;20.54;44.13;101626.38;4881037;29;46288;-54
2022/08/08 05:19:02;;;;;;;;;8.00;6.75;;;;;20.57;43.81;101627.78;4880605;29;45312;-54
2022/08/08 05:21:27;;;;;;;;;6.75;4.75;;;;;20.55;43.94;101624.44;4848489;29;45450;-55
2022/08/08 05:23:53;;;;;;;;;7.25;7.25;;;;;20.44;44.16;101627.06;4881298;29;45631;-56
2022/08/08 05:26:20;;;;;;;;;6.75;4.75;;;;;20.50;44.21;101628.00;4880721;29;46462;-53
2022/08/08 05:28:46;;;;;;;;;6.80;6.80;;;;;20.28;44.24;101606.50;4864162;29;45474;-56
2022/08/08 05:31:11;;;;;;;;;6.50;6.50;;;;;20.50;44.08;101624.34;4880462;29;45429;-56
2022/08/08 05:33:37;;;;;;;;;8.50;7.00;;;;;20.47;44.74;101631.28;4864428;29;45456;-55
2022/08/08 05:36:03;;;;;;;;;10.75;7.75;;;;;20.19;44.47;101599.69;4880742;29;46158;-57
2022/08/08 05:38:29;;;;;;;;;9.50;9.50;;;;;20.48;44.39;101641.34;4863896;29;45364;-54
2022/08/08 05:40:54;;;;;;;;;5.50;5.50;;;;;20.49;44.31;101639.41;4864001;29;45304;-57
2022/08/08 05:43:28;;;;;;;;;7.00;7.00;;;;;20.40;44.63;101634.28;4863805;29;45577;-53
2022/08/08 05:45:58;;;;;;;;;11.20;7.80;;;;;20.33;44.80;101641.94;4880822;29;45753;-54
2022/08/08 05:48:24;;;;;;;;;7.00;7.00;;;;;20.16;44.84;101633.63;4880205;29;45503;-55
2022/08/08 05:50:49;;;;;;;;;7.25;7.25;;;;;20.20;45.26;101651.53;4880782;29;45328;-52
2022/08/08 05:53:16;;;;;;;;;9.25;9.25;;;;;20.22;44.84;101640.97;4880881;29;45438;-53
2022/08/08 05:55:43;;;;;;;;;5.60;5.60;;;;;20.22;44.98;101629.81;4863499;29;46719;-55
2022/08/08 05:58:08;;;;;;;;;6.40;6.40;;;;;20.33;45.13;101655.88;4863630;29;45339;-52
2022/08/08 06:00:34;;;;;;;;;9.50;8.00;;;;;20.35;44.81;101645.34;4813455;29;45930;-57
2022/08/08 06:03:09;;;;;;;;;10.25;10.25;;;;;20.33;45.03;101647.53;4848503;29;45266;-56
2022/08/08 06:05:35;;;;;;;;;8.40;7.00;;;;;20.29;45.14;101655.56;4880376;29;46749;-54
2022/08/08 06:08:00;;;;;;;;;5.50;5.50;;;;;20.39;45.01;101648.47;4848047;29;45323;-57
2022/08/08 06:10:30;;;;;;;;;8.00;7.75;;;;;20.53;44.66;101654.50;4879822;29;45364;-55
2022/08/08 06:12:56;;;;;;;;;8.60;7.60;;;;;20.35;44.37;101623.03;4863843;29;45453;-54
2022/08/08 06:15:21;;;;;;;;;9.00;7.00;;;;;20.61;44.28;101661.59;4847687;29;46324;-54
2022/08/08 06:17:47;;;;;;;;;9.50;9.50;;;;;20.59;44.45;101661.84;4879745;29;45298;-53
2022/08/08 06:20:12;;;;;;;;;10.00;10.00;;;;;20.57;44.30;101650.97;4863472;29;45463;-55
2022/08/08 06:22:38;;;;;;;;;9.75;9.75;;;;;20.43;44.53;101650.47;4880049;29;45403;-52
2022/08/08 06:25:04;;;;;;;;;9.75;9.50;;;;;20.61;44.42;101665.22;4879822;29;46282;-55
2022/08/08 06:27:36;;;;;;;;;8.40;8.40;;;;;20.57;44.78;101675.19;4879846;29;45383;-55
2022/08/08 06:30:07;;;;;;;;;9.60;9.40;;;;;20.57;44.45;101675.19;4880177;29;45356;-52
2022/08/08 06:32:44;;;;;;;;;10.20;9.60;;;;;20.64;44.25;101678.66;4879819;29;45649;-53
2022/08/08 06:35:11;;;;;;;;;10.80;10.60;;;;;20.50;44.55;101655.88;4864570;29;46733;-53
2022/08/08 06:37:37;;;;;;;;;11.00;10.60;;;;;;;;4847387;29;45411;-54
2022/08/08 06:40:05;;;;;;;;;11.60;8.40;;;;;20.50;44.13;101652.25;4880065;29;45437;-56
2022/08/08 06:42:37;;;;;;;;;7.20;6.60;;;;;20.68;44.30;101681.75;4847888;29;45430;-58
2022/08/08 06:45:04;;;;;;;;;9.00;9.00;;;;;20.76;44.13;101691.63;4879888;29;45367;-53
2022/08/08 06:47:29;;;;;;;;;15.40;14.20;;;;;20.74;44.17;101682.69;4879639;29;45220;-56
2022/08/08 06:49:55;;;;;;;;;10.50;10.50;;;;;20.75;44.05;101681.59;4863096;29;45452;-55
2022/08/08 06:52:20;;;;;;;;;13.00;7.75;;;;;20.62;44.42;101664.13;4847608;29;45579;-52
2022/08/08 06:54:46;;;;;;;;;9.75;9.75;;;;;20.61;44.57;101679.19;4862393;29;46851;-54
2022/08/08 06:57:11;;;;;;;;;9.50;9.50;;;;;20.62;44.70;101686.44;4863028;29;45232;-52
2022/08/08 06:59:36;;;;;;;;;8.75;7.25;;;;;20.48;44.62;101663.63;4879844;29;45236;-53
2022/08/08 07:02:03;;;;;;;;;13.25;8.00;;;;;20.66;44.65;101686.75;4879820;29;45598;-56
2022/08/08 07:04:37;;;;;;;;;9.00;9.00;;;;;20.69;44.52;101695.47;4862919;29;45394;-53
2022/08/08 07:07:03;;;;;;;;;10.20;9.40;;;;;20.77;44.58;101690.53;4847743;29;45428;-54
2022/08/08 07:09:36;;;;;;;;;11.75;11.50;;;;;20.54;44.66;101665.41;4879694;29;45313;-56
2022/08/08 07:12:02;;;;;;;;;11.80;9.40;;;;;20.75;44.50;101695.53;4879943;29;45880;-59
2022/08/08 07:14:46;;;;;;;;;10.25;10.25;;;;;20.78;43.94;101700.59;4862644;29;47324;-53
2022/08/08 07:17:16;;;;;;;;;12.60;11.60;;;;;20.79;44.06;101693.91;4879412;29;45451;-55
2022/08/08 07:20:04;;;;;;;;;9.40;9.40;;;;;20.89;43.92;101708.03;4879399;29;45493;-52
2022/08/08 07:22:37;;;;;;;;;10.80;8.00;;;;;20.88;44.13;101708.28;4879626;29;45867;-54
2022/08/08 07:25:03;;;;;;;;;6.80;6.80;;;;;20.94;43.82;101705.31;4847403;29;46848;-57
2022/08/08 07:27:36;;;;;;;;;11.00;10.50;;;;;21.04;43.70;101712.97;4879719;29;45692;-57
2022/08/08 07:30:04;;;;;;;;;6.80;6.80;;;;;21.05;44.18;101723.03;4866056;29;45487;-55
2022/08/08 07:32:30;;;;;;;;;10.40;8.40;;;;;20.99;43.91;101716.53;4882546;29;45515;-55
2022/08/08 07:34:56;;;;;;;;;12.25;9.75;;;;;21.06;43.71;101715.47;4849976;29;46534;-56
2022/08/08 07:37:22;;;;;;;;;8.00;8.00;;;;;21.05;43.73;101711.88;4865249;29;45443;-57
2022/08/08 07:39:47;;;;;;;;;8.00;8.00;;;;;21.13;43.79;101716.13;4882577;29;45352;-54
2022/08/08 07:42:13;;;;;;;;;8.00;7.00;;;;;21.17;43.57;101708.09;4865927;29;45697;-54
2022/08/08 07:44:40;;;;;;;;;7.00;7.00;;;;;21.28;43.42;101721.06;4850191;29;46676;-55
2022/08/08 07:47:06;;;;;;;;;7.00;7.00;;;;;21.31;43.35;101720.56;4881878;29;45393;-53
2022/08/08 07:49:31;;;;;;;;;7.00;7.00;;;;;21.34;42.97;101716.41;4882609;29;45331;-55
2022/08/08 07:51:57;;;;;;;;;6.25;6.00;;;;;21.41;43.13;101722.63;4850214;29;45565;-53
2022/08/08 07:54:32;;;;;;;;;7.25;6.75;;;;;21.37;42.94;101722.31;4865230;29;45643;-53
2022/08/08 07:57:22;;;;;;;;;8.00;8.00;;;;;21.34;42.84;101719.19;4850093;29;45456;-56
2022/08/08 08:00:03;;;;;;;;;9.20;6.40;;;;;21.38;42.95;101724.00;4865780;29;45414;-55
2022/08/08 08:03:05;;;;;;;;;7.60;6.80;;;;;21.49;42.99;101716.56;4866639;29;45775;-56
2022/08/08 08:05:30;;;;;;;;;10.80;8.60;;;;;21.66;42.59;101723.97;4878433;29;45770;-52
2022/08/08 08:08:03;;;;;;;;;8.00;6.50;;;;;21.56;42.53;101693.19;4849620;29;45451;-57
2022/08/08 08:10:29;;;;;;;;;6.00;6.00;;;;;21.73;42.29;101713.50;4865727;29;45285;-55
2022/08/08 08:13:28;;;;;;;;;6.00;6.00;;;;;21.66;41.87;101701.63;4865687;29;45411;-57
2022/08/08 08:16:02;;;;;;;;;6.80;6.80;;;;;21.78;41.78;101710.72;4867700;29;46812;-56
2022/08/08 08:18:57;;;;;;;;;5.80;5.80;;;;;21.79;41.98;101715.22;4882144;29;45418;-57
2022/08/08 08:21:25;;;;;;;;;9.00;8.00;;;;;21.87;41.74;101713.06;4865033;29;45723;-55
2022/08/08 08:23:50;;;;;;;;;5.40;4.40;;;;;22.00;41.42;101718.22;4850238;29;45391;-56
2022/08/08 08:26:17;;;;;;;;;5.50;5.50;;;;;22.10;41.10;101719.41;4881874;29;46349;-55
2022/08/08 08:28:43;;;;;;;;;5.60;5.60;;;;;22.06;40.90;101697.59;4881877;29;45404;-55
2022/08/08 08:31:09;;;;;;;;;6.00;5.00;;;;;22.28;40.93;101730.19;4841101;29;45360;-53
2022/08/08 08:33:34;;;;;;;;;8.25;5.25;;;;;22.21;40.73;101696.03;4863418;29;45483;-54
2022/08/08 08:36:00;;;;;;;;;5.50;5.00;;;;;22.46;40.90;101717.72;4863148;29;46445;-56
2022/08/08 08:38:25;;;;;;;;;6.00;6.00;;;;;22.42;40.64;101708.16;4862483;29;45510;-52
2022/08/08 08:40:51;;;;;;;;;8.00;7.50;;;;;22.53;40.21;101720.34;4863555;29;45430;-54
2022/08/08 08:43:17;;;;;;;;;8.00;6.00;;;;;22.64;40.58;101724.03;4846607;29;45287;-53
2022/08/08 08:45:42;;;;;;;;;4.00;4.00;;;;;22.61;39.84;101713.38;4855179;29;45460;-58
2022/08/08 08:48:08;;;;;;;;;5.75;5.75;;;;;22.71;40.14;101720.97;4850615;29;45668;-59
2022/08/08 08:50:34;;;;;;;;;9.75;8.50;;;;;22.68;39.85;101719.56;4859141;29;45398;-56
2022/08/08 08:53:01;;;;;;;;;6.00;5.00;;;;;22.70;39.90;101720.16;4843577;29;45402;-56
2022/08/08 08:55:27;;;;;;;;;8.20;5.80;;;;;22.77;39.53;101716.28;4875838;29;45526;-55
2022/08/08 08:57:53;;;;;;;;;6.75;5.50;;;;;22.82;39.45;101717.13;4843610;29;45447;-53
2022/08/08 09:00:18;;;;;;;;;7.00;5.25;;;;;22.93;39.52;101711.59;4858823;29;45550;-57
2022/08/08 09:02:43;;;;;;;;;5.25;4.75;;;;;23.04;39.31;101713.31;4875826;29;45362;-54
2022/08/08 09:05:09;;;;;;;;;6.25;5.00;;;;;23.06;39.14;101718.66;4844246;29;46418;-56
2022/08/08 09:07:35;;;;;;;;;5.50;5.50;;;;;23.18;38.70;101718.41;4859109;29;45937;-57
2022/08/08 09:10:01;;;;;;;;;5.80;5.40;;;;;22.93;38.54;101673.25;4877248;29;45525;-53
2022/08/08 09:12:27;;;;;;;;;5.50;4.00;;;;;23.24;38.17;101709.75;4876033;29;45741;-56
2022/08/08 09:14:56;;;;;;;;;4.50;4.50;;;;;23.31;38.18;101712.31;4877004;29;46812;-56
2022/08/08 09:17:24;;;;;;;;;7.00;6.00;;;;;23.35;38.08;101713.47;4845185;29;45756;-55
2022/08/08 09:19:57;;;;;;;;;5.40;5.40;;;;;23.41;37.64;101711.50;4876988;29;45437;-55
2022/08/08 09:22:22;;;;;;;;;5.40;5.00;;;;;23.28;37.28;101684.84;4877220;29;45443;-56
2022/08/08 09:24:49;;;;;;;;;6.25;5.50;;;;;23.52;37.74;101710.41;4876615;29;46036;-56
2022/08/08 09:27:14;;;;;;;;;6.40;4.60;;;;;23.55;36.82;101711.84;4860398;29;45919;-57
2022/08/08 09:29:53;;;;;;;;;5.00;4.25;;;;;23.63;36.87;101707.66;4844528;29;45549;-56
2022/08/08 09:32:37;;;;;;;;;4.00;4.00;;;;;23.69;36.67;101704.56;4865675;28;45405;-56
2022/08/08 09:35:07;;;;;;;;;7.00;6.00;;;;;23.76;37.01;101711.88;4876643;29;46604;-55
2022/08/08 09:37:54;;;;;;;;;4.20;4.20;;;;;23.74;36.66;101698.13;4859975;29;45845;-55
2022/08/08 09:40:23;;;;;;;;;6.60;4.40;;;;;23.90;36.13;101707.38;4876694;29;45683;-54
2022/08/08 09:42:52;;;;;;;;;7.80;6.20;;;;;23.94;35.85;101694.50;4860529;29;45492;-55
2022/08/08 09:45:29;;;;;;;;;5.40;3.80;;;;;24.06;36.06;101699.00;4831537;29;46872;-59
2022/08/08 09:47:54;;;;;;;;;3.80;3.80;;;;;24.16;36.08;101704.63;4815183;29;45673;-55
2022/08/08 09:50:22;;;;;;;;;5.50;5.00;;;;;24.26;35.89;101705.75;4840710;29;45465;-56
2022/08/08 09:52:51;;;;;;;;;6.20;6.20;;;;;24.33;35.66;101706.31;4826478;29;45773;-56
2022/08/08 09:55:18;;;;;;;;;7.00;5.20;;;;;24.41;35.73;101704.88;4857787;29;46677;-57
2022/08/08 09:57:50;;;;;;;;;5.00;5.00;;;;;24.38;35.64;101711.88;4857738;29;45476;-52
2022/08/08 10:00:18;;;;;;;;;7.00;5.00;;;;;24.28;35.42;101675.44;4841375;29;45934;-55
2022/08/08 10:02:48;;;;;;;;;5.80;5.20;;;;;24.49;35.50;101705.13;4841222;29;45417;-57
2022/08/08 10:05:18;;;;;;;;;6.20;5.00;;;;;24.42;35.66;101696.19;4856264;29;45767;-61
2022/08/08 10:07:52;;;;;;;;;6.20;4.80;;;;;24.50;35.27;101694.78;4840973;29;45813;-60
2022/08/08 10:10:36;;;;;;;;;5.00;5.00;;;;;24.58;35.82;101693.31;4857286;29;45486;-54
2022/08/08 10:13:20;;;;;;;;;7.00;7.00;;;;;24.67;35.38;101700.06;4857360;29;45455;-57
2022/08/08 10:15:52;;;;;;;;;6.00;5.00;;;;;24.72;34.85;101687.97;4857245;29;46041;-58
2022/08/08 10:18:32;;;;;;;;;3.20;3.00;;;;;24.46;34.78;101643.16;4875620;29;45485;-59
2022/08/08 10:21:08;;;;;;;;;4.40;4.40;;;;;24.78;35.20;101684.84;4876143;29;45693;-59
2022/08/08 10:23:33;;;;;;;;;5.20;5.20;;;;;24.86;34.86;101688.25;4876412;29;45371;-59
2022/08/08 10:25:59;;;;;;;;;7.25;7.00;;;;;24.90;35.67;101680.91;4875857;29;46380;-57
2022/08/08 10:28:25;;;;;;;;;8.50;5.50;;;;;24.91;34.23;101688.19;4858346;29;45465;-57
2022/08/08 10:30:54;;;;;;;;;6.50;6.50;;;;;24.83;33.77;101653.16;4862929;29;45425;-57
2022/08/08 10:33:33;;;;;;;;;9.60;6.40;;;;;24.88;33.76;101649.50;4847504;29;45755;-57
2022/08/08 10:36:02;;;;;;;;;4.00;4.00;;;;;25.08;34.21;101671.00;4802466;28;46743;-54
2022/08/08 10:38:33;;;;;;;;;6.20;4.80;;;;;25.16;33.62;101669.56;4875175;29;45593;-53
2022/08/08 10:41:03;;;;;;;;;6.80;6.60;;;;;25.22;33.46;101684.41;4844224;29;45529;-54
2022/08/08 10:43:39;;;;;;;;;5.00;4.20;;;;;25.23;33.25;101669.25;4856393;29;46064;-56
2022/08/08 10:46:24;;;;;;;;;9.00;6.20;;;;;25.28;33.79;101681.28;4865164;29;47681;-54
2022/08/08 10:48:53;;;;;;;;;4.20;4.20;;;;;25.33;33.10;101668.34;4861618;29;45335;-53
2022/08/08 10:51:22;;;;;;;;;7.40;7.00;;;;;25.34;33.20;101658.78;4875463;29;45787;-54
2022/08/08 10:53:48;;;;;;;;;4.60;4.00;;;;;25.40;32.69;101658.44;4874638;29;45893;-58
2022/08/08 10:56:14;;;;;;;;;6.80;4.60;;;;;25.36;33.19;101639.66;4868283;29;45935;-59
2022/08/08 10:58:40;;;;;;;;;4.75;4.00;;;;;25.55;33.25;101660.34;4856819;29;45689;-55
2022/08/08 11:01:08;;;;;;;;;7.25;6.00;;;;;25.61;32.69;101657.50;4856555;29;45423;-58
2022/08/08 11:03:41;;;;;;;;;3.60;3.00;;;;;25.65;32.56;101659.44;4857228;29;45710;-57
2022/08/08 11:06:07;;;;;;;;;5.40;4.80;;;;;25.65;32.70;101651.00;4858380;29;46307;-59
2022/08/08 11:08:35;;;;;;;;;4.50;4.50;;;;;25.54;32.53;101622.16;4844951;29;45461;-57
2022/08/08 11:11:01;;;;;;;;;5.00;4.00;;;;;25.91;32.42;101652.75;4879156;29;45541;-58
2022/08/08 11:13:26;;;;;;;;;4.60;4.60;;;;;25.94;31.84;101644.56;4881829;29;45728;-58
2022/08/08 11:15:54;;;;;;;;;4.25;3.25;;;;;25.89;31.59;101635.34;4882438;29;46238;-59
2022/08/08 11:18:19;;;;;;;;;5.00;5.00;;;;;26.06;32.20;101649.81;4850361;29;45362;-59
2022/08/08 11:20:44;;;;;;;;;5.00;5.00;;;;;26.18;31.92;101659.81;4848748;29;45490;-56
2022/08/08 11:23:10;;;;;;;;;5.00;5.00;;;;;26.16;31.17;101640.44;4865852;29;45576;-55
2022/08/08 11:25:35;;;;;;;;;4.25;3.25;;;;;26.29;30.54;101654.97;4865671;29;45551;-56
2022/08/08 11:28:03;;;;;;;;;4.00;4.00;;;;;26.32;30.25;101646.78;4850327;29;45457;-54
2022/08/08 11:30:29;;;;;;;;;4.20;4.20;;;;;26.19;31.01;101608.91;4882804;29;45352;-53
2022/08/08 11:32:56;;;;;;;;;3.80;3.80;;;;;26.43;30.45;101655.09;4881594;29;45500;-53
2022/08/08 11:35:22;;;;;;;;;2.80;2.80;;;;;26.50;30.27;101644.31;4865563;29;46556;-56
2022/08/08 11:37:47;;;;;;;;;5.00;5.00;;;;;26.55;30.29;101644.28;4866203;29;45359;-52
2022/08/08 11:40:13;;;;;;;;;2.00;2.00;;;;;26.51;29.94;101635.59;4882462;29;45408;-54
2022/08/08 11:42:39;;;;;;;;;7.00;7.00;;;;;26.68;29.37;101647.50;4813105;28;48764;-51
2022/08/08 11:45:05;;;;;;;;;4.25;3.75;;;;;26.69;29.18;101624.69;4840916;29;46139;-56
2022/08/08 11:47:32;;;;;;;;;5.40;4.20;;;;;26.76;29.37;101642.06;4811845;29;45505;-53
2022/08/08 11:50:11;;;;;;;;;4.60;3.20;;;;;26.79;29.10;101634.97;4849836;29;45800;-52
2022/08/08 11:52:37;;;;;;;;;4.00;4.00;;;;;26.76;29.46;101610.22;4841149;29;45570;-51